OISL  Lar Airport

Add Bookmark

Lar, Iran

Status IATA
Operational LRR
Latitude Longitude
27° 40' 28" N 54° 22' 59" E
27.674700 54.383301
Local (DST + 5) UTC (GMT + 4)
Sep 2, 2014 06:21 Sep 2, 2014 01:51
Sunrise-Sunset Local UTC
Begin Civil Twilight 06:06 01:36
Sunrise 06:30 02:00
Sunset 07:13 14:43
End Civil Twilight 07:37 15:07

Current Weather

METAR Observed VFR
OISL 020000Z 00000KT CAVOK 24/05 Q1004 Tue, Sep 2, 2014 @ 00:00 UTC
(1 Hour, 51 Minutes ago)
Visual Flight Rules
Wind Visibility Clouds Conditions
Calm 10 km or more
  • Clear skies
  • No significant weather
Temperatures Readings Precipitation
Current Temp 24°C (75°F)
Dewpoint 5°C (41°F)
Humidity 29%
Altimeter 29.65"Hg
Sea Level Pressure 1004mb
Field Elevation 2641.08'
None Recorded

Additional weather within a 185.2km radius of OISL

Map ICAO Location
OISR 122.4km W (254°)
OIBK 133.7km S (197°)
OIBL 134.3km S (161°)
OIBV 139.6km S (227°)
OISF 149.8km N (335°)
OIBP 165.4km W (259°)
OIKQ 181.7km S (124°)

24 Hour Weather History

Loading
-

24 Hour Weather Graphs

Loading
-

CheckWX.com is intended as a tool to help pilots better visualize weather data. It is not intended as a substitute for an official weather briefing obtained from a Flight Service Station. CheckWX.com does not meet the FAA requirements for an official pre-flight weather briefing. Therefore, it's important that pilots still call and obtain an official FSS pre-flight weather briefing.